Time;durP1;ratioP1;P1;durP2;ratioP2;P2;SDS_P1;SDS_P2;PMS_P1;PMS_P2;Temp;Humidity;BMP_temperature;BMP_pressure;BME280_temperature;BME280_humidity;BME280_pressure;Samples;Min_cycle;Max_cycle;Signal;HPM_P1;HPM_P2
2022/11/18 00:02:10;;;;;;;22.00;11.90;;;;;;;;;;5008487;28;20044;-84
2022/11/18 00:04:36;;;;;;;21.95;10.93;;;;;;;;;;4999867;28;20110;-83
2022/11/18 00:07:01;;;;;;;21.25;11.52;;;;;;;;;;5028485;28;20045;-84
2022/11/18 00:09:27;;;;;;;23.42;12.18;;;;;;;;;;5014246;28;20112;-83
2022/11/18 00:14:36;;;;;;;23.02;12.20;;;;;;;;;;5029937;28;20082;-82
2022/11/18 00:17:03;;;;;;;23.15;12.35;;;;;;;;;;5015789;28;20037;-83
2022/11/18 00:19:34;;;;;;;26.23;12.85;;;;;;;;;;5009986;28;20045;-83
2022/11/18 00:22:00;;;;;;;25.05;12.65;;;;;;;;;;5012870;28;20515;-84
2022/11/18 00:24:25;;;;;;;23.33;11.82;;;;;;;;;;5011578;28;20033;-81
2022/11/18 00:26:51;;;;;;;26.20;13.15;;;;;;;;;;5014856;28;20033;-84
2022/11/18 00:29:17;;;;;;;25.35;12.13;;;;;;;;;;5017800;28;20120;-83
2022/11/18 00:31:43;;;;;;;22.73;11.57;;;;;;;;;;5031883;28;20079;-83
2022/11/18 00:34:11;;;;;;;26.02;12.10;;;;;;;;;;5013803;28;20037;-83
2022/11/18 00:36:37;;;;;;;25.60;12.45;;;;;;;;;;5015123;28;20105;-83
2022/11/18 00:39:02;;;;;;;21.15;11.27;;;;;;;;;;5013270;28;20576;-84
2022/11/18 00:42:49;;;;;;;24.13;12.35;;;;;;;;;;5019961;28;20045;-83
2022/11/18 00:44:14;;;;;;;25.83;13.27;;;;;;;;;;5010639;28;20038;-83
2022/11/18 00:46:39;;;;;;;24.95;12.90;;;;;;;;;;5003950;28;20092;-82
2022/11/18 00:49:05;;;;;;;25.63;13.23;;;;;;;;;;5031300;28;20033;-84
2022/11/18 00:51:30;;;;;;;28.10;12.73;;;;;;;;;;5012422;28;20057;-83
2022/11/18 00:53:56;;;;;;;24.52;12.55;;;;;;;;;;5011566;28;20088;-84
2022/11/18 00:56:21;;;;;;;22.40;11.10;;;;;;;;;;5012893;28;20041;-84
2022/11/18 00:58:46;;;;;;;24.90;13.20;;;;;;;;;;5015008;28;20080;-83
2022/11/18 01:01:12;;;;;;;23.25;11.70;;;;;;;;;;5024417;28;20464;-82
2022/11/18 01:03:37;;;;;;;25.13;11.80;;;;;;;;;;5017299;28;20036;-83
2022/11/18 01:06:03;;;;;;;23.95;11.45;;;;;;;;;;4996982;28;20038;-82
2022/11/18 01:08:28;;;;;;;25.50;12.43;;;;;;;;;;4993854;28;20090;-83
2022/11/18 01:10:53;;;;;;;22.13;12.25;;;;;;;;;;5015932;28;20041;-81
2022/11/18 01:13:21;;;;;;;26.08;12.07;;;;;;;;;;5028501;28;20091;-82
2022/11/18 01:15:53;;;;;;;23.55;12.18;;;;;;;;;;5015334;28;20399;-82
2022/11/18 01:18:24;;;;;;;24.38;12.68;;;;;;;;;;5013681;28;20410;-82
2022/11/18 01:20:49;;;;;;;24.02;12.80;;;;;;;;;;5014083;28;20038;-82
2022/11/18 01:23:15;;;;;;;24.25;12.90;;;;;;;;;;5014009;28;20468;-83
2022/11/18 01:25:42;;;;;;;22.42;11.65;;;;;;;;;;5030423;28;20029;-82
2022/11/18 01:28:08;;;;;;;21.53;11.57;;;;;;;;;;5013120;28;20477;-83
2022/11/18 01:30:35;;;;;;;26.70;12.70;;;;;;;;;;5010528;28;20284;-82
2022/11/18 01:33:01;;;;;;;21.90;11.77;;;;;;;;;;5012128;28;20120;-82
2022/11/18 01:35:27;;;;;;;23.48;11.95;;;;;;;;;;5030624;28;20291;-83
2022/11/18 01:37:52;;;;;;;24.52;12.27;;;;;;;;;;5017959;28;20603;-81
2022/11/18 01:40:17;;;;;;;22.90;12.10;;;;;;;;;;5008919;28;20132;-83
2022/11/18 01:42:43;;;;;;;25.10;12.93;;;;;;;;;;5013456;28;20038;-82
2022/11/18 01:45:19;;;;;;;25.52;12.43;;;;;;;;;;5024867;28;20025;-82
2022/11/18 01:47:49;;;;;;;20.75;11.38;;;;;;;;;;5029869;28;20034;-83
2022/11/18 01:50:15;;;;;;;21.88;12.20;;;;;;;;;;5032568;28;20583;-82
2022/11/18 01:52:41;;;;;;;24.02;11.85;;;;;;;;;;5017310;28;20101;-83
2022/11/18 01:55:15;;;;;;;21.70;11.27;;;;;;;;;;4996129;28;20454;-83
2022/11/18 01:57:41;;;;;;;21.65;11.10;;;;;;;;;;5009510;28;20596;-82
2022/11/18 02:00:07;;;;;;;21.13;11.40;;;;;;;;;;5015529;28;20124;-81
2022/11/18 02:02:34;;;;;;;21.15;11.82;;;;;;;;;;5012773;28;20041;-83
2022/11/18 02:05:02;;;;;;;18.88;10.65;;;;;;;;;;5013270;28;20044;-82
2022/11/18 02:07:27;;;;;;;;;;;;;;;;;;5014403;28;20439;-81
2022/11/18 02:09:54;;;;;;;20.35;10.55;;;;;;;;;;5011413;28;20012;-82
2022/11/18 02:12:19;;;;;;;20.00;11.27;;;;;;;;;;5012926;28;20036;-83
2022/11/18 02:14:45;;;;;;;23.23;11.20;;;;;;;;;;5012689;28;20041;-83
2022/11/18 02:17:19;;;;;;;20.80;11.65;;;;;;;;;;5012427;28;20033;-83
2022/11/18 02:19:45;;;;;;;21.15;11.05;;;;;;;;;;5041353;28;20045;-82
2022/11/18 02:22:22;;;;;;;19.48;10.77;;;;;;;;;;5029958;28;20424;-83
2022/11/18 02:25:04;;;;;;;21.95;12.00;;;;;;;;;;5028817;28;20037;-83
2022/11/18 02:27:57;;;;;;;19.02;10.60;;;;;;;;;;5007154;28;20411;-82
2022/11/18 02:30:22;;;;;;;21.40;11.13;;;;;;;;;;5010055;28;20041;-84
2022/11/18 02:32:54;;;;;;;18.58;11.15;;;;;;;;;;5029986;28;20119;-82
2022/11/18 02:35:25;;;;;;;18.98;11.00;;;;;;;;;;5022730;28;20033;-83
2022/11/18 02:38:06;;;;;;;20.63;11.55;;;;;;;;;;5029436;28;20121;-83
2022/11/18 02:40:33;;;;;;;22.00;12.10;;;;;;;;;;5020324;28;20275;-82
2022/11/18 02:43:06;;;;;;;20.95;11.68;;;;;;;;;;5037492;28;20045;-82
2022/11/18 02:45:32;;;;;;;20.08;10.43;;;;;;;;;;5003721;28;20497;-83
2022/11/18 02:48:03;;;;;;;25.00;12.73;;;;;;;;;;5009560;28;20033;-82
2022/11/18 02:50:29;;;;;;;20.90;12.13;;;;;;;;;;5001738;28;20588;-82
2022/11/18 02:52:58;;;;;;;24.63;11.55;;;;;;;;;;5013372;28;20052;-83
2022/11/18 02:55:30;;;;;;;20.45;11.38;;;;;;;;;;5005151;28;20079;-83
2022/11/18 02:57:59;;;;;;;22.95;11.50;;;;;;;;;;4995664;28;20041;-82
2022/11/18 03:00:24;;;;;;;20.88;10.77;;;;;;;;;;4992959;28;20039;-82
2022/11/18 03:02:50;;;;;;;22.33;12.38;;;;;;;;;;5025288;28;20488;-83
2022/11/18 03:05:45;;;;;;;24.55;11.55;;;;;;;;;;5010167;28;20041;-83
2022/11/18 03:08:17;;;;;;;21.73;11.68;;;;;;;;;;5009484;28;20045;-82
2022/11/18 03:10:51;;;;;;;27.17;12.02;;;;;;;;;;4994188;28;20232;-82
2022/11/18 03:13:24;;;;;;;21.42;11.75;;;;;;;;;;4991141;28;20038;-82
2022/11/18 03:16:11;;;;;;;22.77;12.15;;;;;;;;;;4995018;28;20041;-83
2022/11/18 03:18:40;;;;;;;21.23;11.05;;;;;;;;;;5007423;28;20400;-84
2022/11/18 03:21:19;;;;;;;21.95;11.55;;;;;;;;;;5011866;28;20507;-82
2022/11/18 03:23:54;;;;;;;25.05;12.02;;;;;;;;;;4983261;28;20053;-82
2022/11/18 03:26:23;;;;;;;22.02;11.35;;;;;;;;;;5006859;28;20541;-83
2022/11/18 03:28:55;;;;;;;21.65;11.73;;;;;;;;;;5012830;28;20033;-82
2022/11/18 03:31:25;;;;;;;21.73;11.02;;;;;;;;;;5016549;28;20029;-82
2022/11/18 03:34:01;;;;;;;21.63;11.80;;;;;;;;;;4989777;28;20041;-82
2022/11/18 03:36:29;;;;;;;23.38;12.57;;;;;;;;;;5003663;28;20037;-83
2022/11/18 03:38:58;;;;;;;21.95;12.15;;;;;;;;;;5029590;28;20045;-83
2022/11/18 03:41:35;;;;;;;24.45;12.82;;;;;;;;;;5013690;28;20040;-86
2022/11/18 03:44:06;;;;;;;22.65;11.93;;;;;;;;;;5010901;28;20033;-86
2022/11/18 03:46:38;;;;;;;23.17;11.50;;;;;;;;;;5031750;28;20043;-85
2022/11/18 03:49:04;;;;;;;22.45;12.15;;;;;;;;;;5036264;28;20040;-85
2022/11/18 03:51:34;;;;;;;23.42;12.27;;;;;;;;;;5030463;28;20040;-85
2022/11/18 03:54:05;;;;;;;26.40;12.52;;;;;;;;;;5017363;28;20091;-84
2022/11/18 03:56:38;;;;;;;25.17;13.10;;;;;;;;;;5016032;28;20033;-85
2022/11/18 03:59:13;;;;;;;21.17;11.93;;;;;;;;;;5021465;28;20108;-85
2022/11/18 04:02:03;;;;;;;22.88;11.68;;;;;;;;;;5004148;28;20639;-85
2022/11/18 04:04:28;;;;;;;25.00;12.70;;;;;;;;;;5016942;28;20055;-85
2022/11/18 04:07:02;;;;;;;25.20;13.52;;;;;;;;;;4997309;28;20480;-84
2022/11/18 04:09:35;;;;;;;22.23;11.70;;;;;;;;;;5027661;28;20050;-85
2022/11/18 04:12:07;;;;;;;22.85;12.18;;;;;;;;;;4993874;28;20033;-84
2022/11/18 04:14:38;;;;;;;26.67;13.63;;;;;;;;;;4983359;28;20042;-83
2022/11/18 04:17:10;;;;;;;24.70;12.27;;;;;;;;;;5011638;28;20496;-84
2022/11/18 04:19:35;;;;;;;19.85;11.27;;;;;;;;;;5020230;28;20073;-85
2022/11/18 04:22:01;;;;;;;24.60;12.85;;;;;;;;;;5029212;28;20699;-85
2022/11/18 04:24:26;;;;;;;24.00;13.05;;;;;;;;;;5012896;28;20092;-85
2022/11/18 04:26:52;;;;;;;23.55;12.02;;;;;;;;;;5014620;28;20056;-85
2022/11/18 04:29:17;;;;;;;24.17;11.77;;;;;;;;;;5029689;28;20033;-84
2022/11/18 04:31:43;;;;;;;20.85;11.50;;;;;;;;;;5011502;28;20048;-84
2022/11/18 04:34:08;;;;;;;25.10;12.82;;;;;;;;;;5007398;28;20029;-84
2022/11/18 04:36:34;;;;;;;23.55;12.77;;;;;;;;;;5006926;28;20068;-86
2022/11/18 04:38:59;;;;;;;23.75;12.07;;;;;;;;;;5014908;28;20059;-87
2022/11/18 04:41:54;;;;;;;23.55;12.13;;;;;;;;;;5030665;28;20037;-86
2022/11/18 04:44:11;;;;;;;22.42;12.35;;;;;;;;;;5024830;28;20044;-85
2022/11/18 04:46:40;;;;;;;25.17;13.43;;;;;;;;;;5014320;28;20033;-85
2022/11/18 04:49:07;;;;;;;23.77;12.40;;;;;;;;;;5000817;28;20108;-86
2022/11/18 04:51:32;;;;;;;22.77;12.20;;;;;;;;;;5011718;28;20068;-86
2022/11/18 04:53:58;;;;;;;25.02;12.55;;;;;;;;;;5013419;28;20064;-87
2022/11/18 04:56:23;;;;;;;24.45;13.25;;;;;;;;;;5017781;28;20040;-86
2022/11/18 04:58:48;;;;;;;24.25;12.43;;;;;;;;;;5012903;28;20393;-86
2022/11/18 05:01:14;;;;;;;26.58;12.65;;;;;;;;;;5026452;28;20039;-86
2022/11/18 05:03:39;;;;;;;26.92;13.38;;;;;;;;;;5014816;28;20072;-86
2022/11/18 05:06:05;;;;;;;24.30;13.10;;;;;;;;;;5028482;28;20037;-87
2022/11/18 05:08:30;;;;;;;24.65;13.20;;;;;;;;;;5014650;28;20037;-86
2022/11/18 05:12:47;;;;;;;25.23;13.60;;;;;;;;;;5015611;28;20123;-84
2022/11/18 05:13:41;;;;;;;26.50;13.25;;;;;;;;;;5018152;28;20454;-87
2022/11/18 05:16:09;;;;;;;25.90;12.80;;;;;;;;;;5028224;28;20057;-86
2022/11/18 05:18:34;;;;;;;27.77;13.75;;;;;;;;;;5013182;28;20467;-86
2022/11/18 05:21:04;;;;;;;28.48;14.45;;;;;;;;;;5013785;28;20152;-86
2022/11/18 05:23:29;;;;;;;28.33;13.90;;;;;;;;;;5027343;28;20049;-85
2022/11/18 05:25:55;;;;;;;29.77;14.43;;;;;;;;;;4997871;28;20045;-85
2022/11/18 05:28:20;;;;;;;28.27;13.77;;;;;;;;;;5012974;28;20036;-87
2022/11/18 05:30:46;;;;;;;26.80;13.90;;;;;;;;;;5013227;28;20034;-85
2022/11/18 05:33:11;;;;;;;27.13;13.57;;;;;;;;;;5015169;28;20056;-85
2022/11/18 05:35:36;;;;;;;26.98;13.90;;;;;;;;;;5027155;28;20148;-85
2022/11/18 05:38:02;;;;;;;28.17;14.35;;;;;;;;;;5016041;28;20396;-87
2022/11/18 05:40:28;;;;;;;26.52;13.35;;;;;;;;;;5010789;28;20068;-87
2022/11/18 05:43:11;;;;;;;26.73;13.35;;;;;;;;;;5030824;28;20120;-87
2022/11/18 05:45:38;;;;;;;27.83;14.10;;;;;;;;;;5012136;28;20033;-87
2022/11/18 05:48:05;;;;;;;28.48;14.32;;;;;;;;;;5014807;28;20134;-87
2022/11/18 05:50:35;;;;;;;27.58;15.18;;;;;;;;;;5025996;28;20033;-87
2022/11/18 05:53:01;;;;;;;27.80;13.93;;;;;;;;;;5010472;28;20382;-84
2022/11/18 05:55:32;;;;;;;30.00;14.73;;;;;;;;;;5012420;28;20088;-87
2022/11/18 05:57:58;;;;;;;27.98;15.18;;;;;;;;;;5009988;28;20468;-85
2022/11/18 06:00:23;;;;;;;28.55;13.90;;;;;;;;;;5017308;28;20038;-84
2022/11/18 06:02:49;;;;;;;30.42;14.35;;;;;;;;;;5011459;28;20591;-82
2022/11/18 06:05:16;;;;;;;27.92;14.30;;;;;;;;;;5010118;28;20055;-84
2022/11/18 06:07:43;;;;;;;28.23;13.30;;;;;;;;;;5014535;28;20088;-83
2022/11/18 06:10:12;;;;;;;27.00;13.43;;;;;;;;;;5023708;28;20051;-79
2022/11/18 06:12:40;;;;;;;30.90;14.80;;;;;;;;;;5011538;28;20041;-80
2022/11/18 06:15:15;;;;;;;27.77;13.20;;;;;;;;;;5043302;28;20037;-80
2022/11/18 06:17:47;;;;;;;26.35;13.95;;;;;;;;;;5016092;28;20589;-80
2022/11/18 06:20:15;;;;;;;27.15;12.48;;;;;;;;;;5027586;28;20456;-79
2022/11/18 06:22:41;;;;;;;30.85;14.18;;;;;;;;;;5010959;28;20479;-81
2022/11/18 06:25:06;;;;;;;23.42;12.05;;;;;;;;;;5000586;28;20168;-82
2022/11/18 06:27:33;;;;;;;23.95;12.50;;;;;;;;;;4994151;28;20037;-80
2022/11/18 06:29:58;;;;;;;21.67;11.50;;;;;;;;;;5012962;28;20042;-81
2022/11/18 06:32:23;;;;;;;24.65;12.55;;;;;;;;;;5002712;28;20033;-81
2022/11/18 06:34:49;;;;;;;22.55;12.05;;;;;;;;;;4994195;28;20038;-82
2022/11/18 06:37:15;;;;;;;22.17;11.55;;;;;;;;;;4993306;28;20059;-82
2022/11/18 06:39:41;;;;;;;21.90;10.73;;;;;;;;;;4991684;28;20084;-83
2022/11/18 06:42:07;;;;;;;23.35;11.43;;;;;;;;;;5028148;28;21287;-83
2022/11/18 06:44:32;;;;;;;21.33;11.18;;;;;;;;;;5015141;28;20067;-82
2022/11/18 06:46:58;;;;;;;21.20;11.35;;;;;;;;;;5026600;28;20472;-81
2022/11/18 06:49:25;;;;;;;24.13;12.20;;;;;;;;;;5029949;28;20057;-82
2022/11/18 06:51:50;;;;;;;22.83;10.80;;;;;;;;;;5042250;28;20077;-82
2022/11/18 06:54:16;;;;;;;21.23;10.57;;;;;;;;;;5013967;28;20089;-79
2022/11/18 06:56:41;;;;;;;41.92;17.45;;;;;;;;;;5027942;28;20044;-79
2022/11/18 06:59:06;;;;;;;36.75;17.10;;;;;;;;;;5012739;28;20171;-78
2022/11/18 07:01:37;;;;;;;22.65;12.10;;;;;;;;;;5027138;28;20045;-78
2022/11/18 07:04:03;;;;;;;22.00;11.02;;;;;;;;;;5035302;28;20048;-78
2022/11/18 07:06:31;;;;;;;21.42;11.30;;;;;;;;;;5031787;28;20034;-78
2022/11/18 07:09:06;;;;;;;17.00;9.43;;;;;;;;;;5015133;28;20099;-78
2022/11/18 07:11:32;;;;;;;19.17;9.88;;;;;;;;;;4985992;28;20033;-80
2022/11/18 07:13:57;;;;;;;17.67;9.10;;;;;;;;;;5017518;28;20541;-81
2022/11/18 07:16:24;;;;;;;20.73;11.07;;;;;;;;;;4997798;28;20442;-80
2022/11/18 07:18:51;;;;;;;20.33;10.52;;;;;;;;;;4995585;28;20049;-81
2022/11/18 07:21:19;;;;;;;17.27;8.88;;;;;;;;;;5009748;28;20044;-79
2022/11/18 07:23:45;;;;;;;22.85;10.95;;;;;;;;;;4996329;28;20129;-79
2022/11/18 07:26:11;;;;;;;24.45;11.80;;;;;;;;;;4997630;28;20121;-79
2022/11/18 07:28:36;;;;;;;25.15;11.93;;;;;;;;;;5013335;28;20544;-79
2022/11/18 07:31:06;;;;;;;20.95;10.80;;;;;;;;;;4996230;28;20117;-80
2022/11/18 07:33:32;;;;;;;22.83;9.98;;;;;;;;;;5011324;28;20650;-79
2022/11/18 07:36:18;;;;;;;21.30;11.07;;;;;;;;;;5012122;28;20036;-79
2022/11/18 07:38:43;;;;;;;21.95;11.38;;;;;;;;;;5006756;28;20125;-79
2022/11/18 07:41:17;;;;;;;24.42;11.27;;;;;;;;;;4999719;28;20025;-79
2022/11/18 07:43:42;;;;;;;23.73;10.63;;;;;;;;;;5029829;28;20038;-81
2022/11/18 07:46:32;;;;;;;23.75;11.55;;;;;;;;;;5018721;28;20105;-79
2022/11/18 07:48:59;;;;;;;23.98;11.63;;;;;;;;;;5021352;28;20071;-80
2022/11/18 07:51:27;;;;;;;21.83;11.32;;;;;;;;;;5010668;28;20040;-78
2022/11/18 07:53:52;;;;;;;;;;;;;;;;;;5016743;28;20084;-78
2022/11/18 07:56:21;;;;;;;20.77;10.88;;;;;;;;;;4994730;28;20653;-79
2022/11/18 07:58:51;;;;;;;22.10;10.00;;;;;;;;;;4996570;28;20129;-80
2022/11/18 08:01:18;;;;;;;15.82;8.25;;;;;;;;;;5005323;28;20041;-78
2022/11/18 08:03:45;;;;;;;20.45;11.23;;;;;;;;;;5044560;28;20501;-80
2022/11/18 08:06:12;;;;;;;20.05;10.55;;;;;;;;;;5027144;28;20551;-79
2022/11/18 08:08:38;;;;;;;19.73;9.55;;;;;;;;;;5030404;28;20446;-79
2022/11/18 08:11:05;;;;;;;21.67;10.70;;;;;;;;;;5027204;28;20056;-79
2022/11/18 08:13:31;;;;;;;21.42;10.32;;;;;;;;;;5033497;28;20499;-79
2022/11/18 08:15:56;;;;;;;19.50;10.32;;;;;;;;;;5015167;28;20037;-79
2022/11/18 08:18:21;;;;;;;20.92;10.82;;;;;;;;;;5017957;28;20025;-78
2022/11/18 08:20:47;;;;;;;20.35;10.50;;;;;;;;;;5013223;28;20066;-80
2022/11/18 08:23:13;;;;;;;21.77;10.77;;;;;;;;;;5021239;28;20530;-79
2022/11/18 08:25:40;;;;;;;20.15;10.43;;;;;;;;;;5029080;28;20029;-80
2022/11/18 08:28:06;;;;;;;23.02;11.10;;;;;;;;;;5011809;28;20039;-79
2022/11/18 08:30:35;;;;;;;22.13;11.07;;;;;;;;;;5010112;28;20070;-78
2022/11/18 08:33:00;;;;;;;21.73;10.73;;;;;;;;;;5033487;28;20033;-79
2022/11/18 08:35:27;;;;;;;20.95;10.90;;;;;;;;;;5014841;28;20037;-79
2022/11/18 08:37:54;;;;;;;24.25;10.63;;;;;;;;;;5009609;28;20069;-79
2022/11/18 08:40:19;;;;;;;22.07;11.00;;;;;;;;;;5017151;28;20465;-79
2022/11/18 08:42:44;;;;;;;18.73;9.13;;;;;;;;;;5013342;28;20119;-78
2022/11/18 08:45:10;;;;;;;19.33;10.13;;;;;;;;;;5014973;28;20041;-79
2022/11/18 08:47:36;;;;;;;20.27;10.75;;;;;;;;;;5011519;28;20090;-79
2022/11/18 08:50:03;;;;;;;20.65;11.48;;;;;;;;;;5027011;28;20555;-79
2022/11/18 08:52:29;;;;;;;30.02;14.82;;;;;;;;;;5013845;28;20099;-80
2022/11/18 08:54:54;;;;;;;18.23;10.30;;;;;;;;;;5031171;28;20432;-79
2022/11/18 08:57:19;;;;;;;18.30;10.32;;;;;;;;;;5027323;28;20057;-78
2022/11/18 08:59:45;;;;;;;19.63;10.07;;;;;;;;;;5027953;28;20043;-80
2022/11/18 09:02:19;;;;;;;18.75;9.73;;;;;;;;;;5031379;28;20090;-80
2022/11/18 09:04:49;;;;;;;18.13;9.95;;;;;;;;;;5003328;28;20083;-82
2022/11/18 09:07:15;;;;;;;19.08;9.82;;;;;;;;;;5028760;28;20037;-80
2022/11/18 09:09:43;;;;;;;18.70;9.68;;;;;;;;;;5023918;28;20362;-79
2022/11/18 09:12:09;;;;;;;19.13;10.15;;;;;;;;;;5010388;28;20370;-79
2022/11/18 09:14:34;;;;;;;19.75;10.00;;;;;;;;;;4995515;28;20049;-79
2022/11/18 09:17:00;;;;;;;20.02;10.00;;;;;;;;;;5009588;28;20778;-81
2022/11/18 09:19:26;;;;;;;17.23;10.27;;;;;;;;;;5027149;28;20046;-79
2022/11/18 09:21:52;;;;;;;16.42;8.15;;;;;;;;;;5009820;28;20389;-81
2022/11/18 09:24:17;;;;;;;22.05;10.77;;;;;;;;;;5028602;28;20033;-80
2022/11/18 09:26:43;;;;;;;18.88;9.98;;;;;;;;;;5011732;28;20037;-81
2022/11/18 09:29:10;;;;;;;18.58;9.77;;;;;;;;;;5025543;28;20029;-80
2022/11/18 09:31:36;;;;;;;17.58;9.80;;;;;;;;;;5030057;28;20040;-79
2022/11/18 09:34:02;;;;;;;17.95;9.63;;;;;;;;;;5030394;28;20034;-79
2022/11/18 09:36:28;;;;;;;17.95;9.30;;;;;;;;;;5033057;28;20095;-81
2022/11/18 09:38:53;;;;;;;19.17;9.77;;;;;;;;;;5026374;28;20370;-79
2022/11/18 09:41:38;;;;;;;17.48;9.50;;;;;;;;;;5048048;28;20048;-81
2022/11/18 09:44:15;;;;;;;16.30;8.93;;;;;;;;;;5007042;28;20402;-79
2022/11/18 09:47:04;;;;;;;17.90;10.02;;;;;;;;;;5024280;28;20037;-79
2022/11/18 09:49:40;;;;;;;17.08;8.93;;;;;;;;;;5024623;28;20442;-81
2022/11/18 09:52:11;;;;;;;19.20;10.13;;;;;;;;;;5029180;28;20039;-79
2022/11/18 09:54:37;;;;;;;21.73;10.85;;;;;;;;;;5031031;28;20033;-80
2022/11/18 09:57:10;;;;;;;17.05;9.20;;;;;;;;;;5016129;28;20041;-79
2022/11/18 09:59:36;;;;;;;16.10;8.15;;;;;;;;;;5044283;28;20037;-80
2022/11/18 10:02:35;;;;;;;16.73;8.88;;;;;;;;;;5027413;28;20060;-80
2022/11/18 10:05:13;;;;;;;17.83;9.25;;;;;;;;;;5011081;28;20069;-80
2022/11/18 10:08:04;;;;;;;16.15;8.43;;;;;;;;;;4990972;28;20030;-78
2022/11/18 10:10:40;;;;;;;16.10;8.73;;;;;;;;;;5003115;28;20042;-80
2022/11/18 10:13:44;;;;;;;14.23;8.27;;;;;;;;;;5011247;28;20037;-80
2022/11/18 10:16:22;;;;;;;13.68;7.22;;;;;;;;;;5000530;28;20057;-81
2022/11/18 10:18:58;;;;;;;13.48;7.18;;;;;;;;;;5011768;28;20505;-79
2022/11/18 10:21:45;;;;;;;14.13;7.40;;;;;;;;;;5031212;28;20045;-80
2022/11/18 10:24:16;;;;;;;12.07;6.95;;;;;;;;;;5013727;28;20038;-81
2022/11/18 10:26:41;;;;;;;12.38;6.30;;;;;;;;;;5007318;28;20041;-80
2022/11/18 10:29:08;;;;;;;11.25;6.15;;;;;;;;;;5006480;28;20034;-79
2022/11/18 10:31:54;;;;;;;11.88;6.55;;;;;;;;;;5005136;28;20781;-79
2022/11/18 10:34:20;;;;;;;11.40;5.53;;;;;;;;;;5042246;28;20060;-80
2022/11/18 10:37:13;;;;;;;12.15;6.00;;;;;;;;;;5014778;28;20037;-81
2022/11/18 10:39:55;;;;;;;11.07;6.45;;;;;;;;;;5016816;28;20785;-78
2022/11/18 10:42:35;;;;;;;11.05;5.80;;;;;;;;;;4999843;28;20057;-81
2022/11/18 10:45:16;;;;;;;11.75;5.75;;;;;;;;;;5019798;28;20090;-79
2022/11/18 10:47:41;;;;;;;11.50;5.85;;;;;;;;;;5023511;28;20527;-80
2022/11/18 10:50:29;;;;;;;11.23;5.35;;;;;;;;;;5000083;28;20036;-78
2022/11/18 10:52:54;;;;;;;11.32;6.38;;;;;;;;;;5032460;28;20119;-78
2022/11/18 10:55:22;;;;;;;11.88;5.80;;;;;;;;;;5014337;28;20541;-78
2022/11/18 10:57:50;;;;;;;11.98;5.43;;;;;;;;;;5017629;28;20518;-79
2022/11/18 11:00:51;;;;;;;10.00;5.38;;;;;;;;;;5029831;28;20045;-80
2022/11/18 11:03:31;;;;;;;11.40;6.10;;;;;;;;;;4926889;29;20054;-80
2022/11/18 11:06:20;;;;;;;9.38;5.40;;;;;;;;;;5008616;28;20104;-81
2022/11/18 11:08:50;;;;;;;9.02;5.35;;;;;;;;;;4994378;28;20033;-81
2022/11/18 11:11:30;;;;;;;10.50;5.60;;;;;;;;;;5007458;28;20098;-79
2022/11/18 11:14:19;;;;;;;11.07;6.00;;;;;;;;;;5035633;28;20523;-82
2022/11/18 11:17:05;;;;;;;8.35;5.05;;;;;;;;;;5012410;28;20092;-79
2022/11/18 11:19:37;;;;;;;9.50;5.10;;;;;;;;;;5018598;28;20041;-80
2022/11/18 11:22:07;;;;;;;10.27;5.07;;;;;;;;;;5033587;28;20038;-79
2022/11/18 11:24:33;;;;;;;9.55;5.55;;;;;;;;;;5019101;28;20489;-79
2022/11/18 11:27:04;;;;;;;9.93;5.72;;;;;;;;;;5035558;28;20127;-80
2022/11/18 11:30:08;;;;;;;10.13;5.57;;;;;;;;;;5024231;28;20059;-80
2022/11/18 11:32:34;;;;;;;10.13;5.30;;;;;;;;;;4992482;28;20038;-80
2022/11/18 11:35:05;;;;;;;10.35;5.82;;;;;;;;;;5017456;28;20388;-80
2022/11/18 11:37:46;;;;;;;10.27;5.38;;;;;;;;;;5019545;28;20040;-80
2022/11/18 11:40:36;;;;;;;12.07;5.47;;;;;;;;;;5001325;28;20041;-79
2022/11/18 11:43:16;;;;;;;11.98;5.70;;;;;;;;;;5032794;28;20048;-80
2022/11/18 11:46:05;;;;;;;11.60;5.55;;;;;;;;;;5035627;28;20037;-80
2022/11/18 11:48:49;;;;;;;10.90;5.60;;;;;;;;;;5034927;28;20033;-80
2022/11/18 11:51:35;;;;;;;10.27;5.93;;;;;;;;;;5030251;28;20038;-80
2022/11/18 11:54:26;;;;;;;10.38;5.50;;;;;;;;;;5026011;28;20044;-80
2022/11/18 11:56:54;;;;;;;10.68;5.53;;;;;;;;;;5002345;28;20176;-80
2022/11/18 11:59:34;;;;;;;9.88;5.40;;;;;;;;;;5007758;28;20124;-79
2022/11/18 12:02:00;;;;;;;9.98;5.78;;;;;;;;;;5025098;28;20500;-79
2022/11/18 12:04:39;;;;;;;11.43;5.80;;;;;;;;;;5027790;28;20040;-81
2022/11/18 12:07:06;;;;;;;11.77;5.75;;;;;;;;;;5015001;28;20094;-80
2022/11/18 12:09:31;;;;;;;11.80;6.00;;;;;;;;;;5016424;28;20556;-79
2022/11/18 12:12:35;;;;;;;9.15;5.38;;;;;;;;;;5028248;28;20125;-80
2022/11/18 12:15:23;;;;;;;9.43;5.05;;;;;;;;;;5014318;28;20033;-79
2022/11/18 12:18:20;;;;;;;13.32;5.80;;;;;;;;;;4983329;28;20053;-81
2022/11/18 12:20:51;;;;;;;11.27;5.63;;;;;;;;;;5014588;28;20417;-81
2022/11/18 12:23:27;;;;;;;10.23;5.15;;;;;;;;;;5015904;28;20037;-78
2022/11/18 12:25:56;;;;;;;9.77;5.50;;;;;;;;;;5026718;28;20045;-81
2022/11/18 12:28:41;;;;;;;10.48;5.30;;;;;;;;;;5031357;28;20044;-80
2022/11/18 12:31:21;;;;;;;9.95;5.65;;;;;;;;;;4990136;28;20033;-82
2022/11/18 12:33:52;;;;;;;10.45;5.43;;;;;;;;;;4994386;28;20042;-78
2022/11/18 12:36:34;;;;;;;9.02;5.07;;;;;;;;;;5013683;28;20044;-80
2022/11/18 12:39:24;;;;;;;9.07;5.22;;;;;;;;;;5006277;28;20394;-83
2022/11/18 12:44:33;;;;;;;9.45;5.22;;;;;;;;;;5005675;28;20108;-82
2022/11/18 12:47:00;;;;;;;8.98;5.18;;;;;;;;;;5008441;28;20684;-78
2022/11/18 12:49:25;;;;;;;8.48;5.07;;;;;;;;;;5030156;28;20033;-80
2022/11/18 12:51:51;;;;;;;8.07;4.50;;;;;;;;;;5030029;28;20459;-81
2022/11/18 12:54:49;;;;;;;7.93;4.32;;;;;;;;;;5031887;28;20047;-80
2022/11/18 12:57:26;;;;;;;10.18;4.82;;;;;;;;;;4964810;28;20745;-80
2022/11/18 12:59:51;;;;;;;8.20;4.03;;;;;;;;;;4927747;28;20062;-81
2022/11/18 13:02:22;;;;;;;9.07;4.82;;;;;;;;;;4954965;28;20451;-79
2022/11/18 13:05:10;;;;;;;8.68;4.57;;;;;;;;;;4970932;28;20039;-79
2022/11/18 13:08:12;;;;;;;7.45;4.32;;;;;;;;;;4969388;28;20536;-81
2022/11/18 13:17:50;;;;;;;9.07;4.78;;;;;;;;;;4969223;28;20410;-79
2022/11/18 13:19:23;;;;;;;8.90;4.80;;;;;;;;;;4953703;28;20132;-79
2022/11/18 13:24:46;;;;;;;7.35;4.15;;;;;;;;;;4954219;28;20046;-81
2022/11/18 13:27:34;;;;;;;9.65;5.05;;;;;;;;;;4951497;28;20035;-81
2022/11/18 13:30:10;;;;;;;9.48;5.00;;;;;;;;;;4955497;28;20038;-80
2022/11/18 13:32:35;;;;;;;8.98;4.70;;;;;;;;;;4969270;28;20123;-80
2022/11/18 13:35:11;;;;;;;9.60;4.65;;;;;;;;;;5008078;28;20508;-81
2022/11/18 13:37:50;;;;;;;8.75;4.28;;;;;;;;;;5004034;28;20033;-80
2022/11/18 13:40:27;;;;;;;8.68;4.40;;;;;;;;;;5012444;28;20052;-80
2022/11/18 13:43:13;;;;;;;8.55;4.82;;;;;;;;;;5008527;28;20063;-79
2022/11/18 13:45:38;;;;;;;8.00;4.53;;;;;;;;;;4969958;28;20075;-80
2022/11/18 13:48:08;;;;;;;9.05;4.47;;;;;;;;;;4975993;28;20493;-80
2022/11/18 13:50:50;;;;;;;7.70;4.25;;;;;;;;;;4968563;28;20080;-79
2022/11/18 13:53:24;;;;;;;8.10;4.13;;;;;;;;;;4973123;28;20589;-81
2022/11/18 13:55:51;;;;;;;8.60;3.97;;;;;;;;;;4970017;28;20058;-79
2022/11/18 13:58:16;;;;;;;9.10;4.72;;;;;;;;;;4955725;28;20128;-80
2022/11/18 14:00:42;;;;;;;7.28;4.28;;;;;;;;;;4968464;28;20124;-79
2022/11/18 14:03:44;;;;;;;8.82;4.72;;;;;;;;;;4974084;28;20471;-79
2022/11/18 14:06:10;;;;;;;7.45;3.92;;;;;;;;;;4970544;28;20034;-79
2022/11/18 14:08:37;;;;;;;6.80;3.80;;;;;;;;;;4972655;28;20038;-80
2022/11/18 14:11:05;;;;;;;7.55;4.13;;;;;;;;;;4956390;28;20189;-80
2022/11/18 14:13:34;;;;;;;;;;;;;;;;;;4958227;28;20049;-80
2022/11/18 14:16:01;;;;;;;6.47;3.70;;;;;;;;;;4973043;28;20325;-81
2022/11/18 14:18:32;;;;;;;7.50;4.13;;;;;;;;;;4945654;28;20038;-82
2022/11/18 14:21:02;;;;;;;6.97;3.65;;;;;;;;;;4989165;28;20053;-83
2022/11/18 14:23:30;;;;;;;8.00;3.85;;;;;;;;;;5002026;28;20042;-82
2022/11/18 14:25:57;;;;;;;6.93;4.00;;;;;;;;;;4997316;28;20120;-82
2022/11/18 14:28:32;;;;;;;9.10;4.88;;;;;;;;;;5015822;28;20029;-82
2022/11/18 14:31:02;;;;;;;8.07;4.13;;;;;;;;;;5026518;28;20098;-81
2022/11/18 14:33:35;;;;;;;7.20;3.97;;;;;;;;;;5022957;28;20061;-82
2022/11/18 14:36:13;;;;;;;9.15;4.28;;;;;;;;;;5014668;28;20587;-85
2022/11/18 14:38:49;;;;;;;8.00;4.60;;;;;;;;;;5006746;28;20061;-82
2022/11/18 14:41:45;;;;;;;6.63;3.63;;;;;;;;;;5011728;28;20042;-81
2022/11/18 14:44:03;;;;;;;7.80;3.92;;;;;;;;;;5026482;28;20042;-82
2022/11/18 14:46:28;;;;;;;7.40;4.35;;;;;;;;;;5039255;28;20042;-83
2022/11/18 14:48:54;;;;;;;11.18;5.05;;;;;;;;;;5012005;28;20092;-82
2022/11/18 14:51:19;;;;;;;9.25;4.72;;;;;;;;;;5026088;28;20076;-87
2022/11/18 14:53:44;;;;;;;9.35;4.70;;;;;;;;;;5011794;28;20525;-81
2022/11/18 14:56:33;;;;;;;6.53;3.45;;;;;;;;;;5026078;28;20389;-81
2022/11/18 14:58:58;;;;;;;6.57;3.28;;;;;;;;;;4976668;28;20046;-82
2022/11/18 15:01:26;;;;;;;7.70;3.70;;;;;;;;;;5022113;28;20393;-84
2022/11/18 15:03:51;;;;;;;;;;;;;;;;;;5010700;28;20045;-82